sensor_id;sensor_type;location;lat;lon;timestamp;temperature;humidity
5192;DHT22;2615;44.524;11.284;2023-03-23T00:02:23;13.60;53.40
5192;DHT22;2615;44.524;11.284;2023-03-23T00:04:50;13.60;53.40
5192;DHT22;2615;44.524;11.284;2023-03-23T00:07:19;13.60;53.40
5192;DHT22;2615;44.524;11.284;2023-03-23T00:09:49;13.60;53.50
5192;DHT22;2615;44.524;11.284;2023-03-23T00:12:20;13.50;53.50
5192;DHT22;2615;44.524;11.284;2023-03-23T00:14:58;13.50;53.50
5192;DHT22;2615;44.524;11.284;2023-03-23T00:17:26;13.50;53.60
5192;DHT22;2615;44.524;11.284;2023-03-23T00:19:53;13.50;53.70
5192;DHT22;2615;44.524;11.284;2023-03-23T00:22:20;13.50;53.80
5192;DHT22;2615;44.524;11.284;2023-03-23T00:24:51;13.40;53.80
5192;DHT22;2615;44.524;11.284;2023-03-23T00:27:19;13.40;53.90
5192;DHT22;2615;44.524;11.284;2023-03-23T00:29:48;13.40;54.00
5192;DHT22;2615;44.524;11.284;2023-03-23T00:32:19;13.40;53.90
5192;DHT22;2615;44.524;11.284;2023-03-23T00:34:47;13.40;54.00
5192;DHT22;2615;44.524;11.284;2023-03-23T00:37:15;13.30;53.90
5192;DHT22;2615;44.524;11.284;2023-03-23T00:39:43;13.30;54.50
5192;DHT22;2615;44.524;11.284;2023-03-23T00:42:14;13.30;54.00
5192;DHT22;2615;44.524;11.284;2023-03-23T00:44:42;13.30;54.10
5192;DHT22;2615;44.524;11.284;2023-03-23T00:47:11;13.30;54.10
5192;DHT22;2615;44.524;11.284;2023-03-23T00:49:38;13.30;54.10
5192;DHT22;2615;44.524;11.284;2023-03-23T00:52:07;13.30;54.20
5192;DHT22;2615;44.524;11.284;2023-03-23T00:54:34;13.20;54.10
5192;DHT22;2615;44.524;11.284;2023-03-23T00:57:03;13.20;54.10
5192;DHT22;2615;44.524;11.284;2023-03-23T00:59:32;13.20;54.20
5192;DHT22;2615;44.524;11.284;2023-03-23T01:01:59;13.20;54.30
5192;DHT22;2615;44.524;11.284;2023-03-23T01:04:26;13.20;54.30
5192;DHT22;2615;44.524;11.284;2023-03-23T01:06:54;13.20;54.30
5192;DHT22;2615;44.524;11.284;2023-03-23T01:09:22;13.20;54.40
5192;DHT22;2615;44.524;11.284;2023-03-23T01:11:50;13.20;54.40
5192;DHT22;2615;44.524;11.284;2023-03-23T01:14:19;13.20;54.40
5192;DHT22;2615;44.524;11.284;2023-03-23T01:16:47;13.20;54.40
5192;DHT22;2615;44.524;11.284;2023-03-23T01:19:14;13.20;54.40
5192;DHT22;2615;44.524;11.284;2023-03-23T01:21:42;13.20;54.40
5192;DHT22;2615;44.524;11.284;2023-03-23T01:24:09;13.20;53.90
5192;DHT22;2615;44.524;11.284;2023-03-23T01:26:36;13.20;54.40
5192;DHT22;2615;44.524;11.284;2023-03-23T01:29:04;13.20;54.40
5192;DHT22;2615;44.524;11.284;2023-03-23T01:31:31;13.20;54.40
5192;DHT22;2615;44.524;11.284;2023-03-23T01:33:59;13.20;54.40
5192;DHT22;2615;44.524;11.284;2023-03-23T01:36:27;13.20;54.40
5192;DHT22;2615;44.524;11.284;2023-03-23T01:38:59;13.30;54.50
5192;DHT22;2615;44.524;11.284;2023-03-23T01:41:27;13.30;54.50
5192;DHT22;2615;44.524;11.284;2023-03-23T01:43:59;13.30;54.50
5192;DHT22;2615;44.524;11.284;2023-03-23T01:46:30;13.30;54.40
5192;DHT22;2615;44.524;11.284;2023-03-23T01:49:00;13.40;54.50
5192;DHT22;2615;44.524;11.284;2023-03-23T01:51:34;13.40;54.40
5192;DHT22;2615;44.524;11.284;2023-03-23T01:54:04;13.40;54.40
5192;DHT22;2615;44.524;11.284;2023-03-23T01:56:36;13.40;54.40
5192;DHT22;2615;44.524;11.284;2023-03-23T01:59:07;13.40;54.30
5192;DHT22;2615;44.524;11.284;2023-03-23T02:01:36;13.40;54.30
5192;DHT22;2615;44.524;11.284;2023-03-23T02:04:10;13.50;54.40
5192;DHT22;2615;44.524;11.284;2023-03-23T02:06:37;13.50;54.40
5192;DHT22;2615;44.524;11.284;2023-03-23T02:09:04;13.50;54.40
5192;DHT22;2615;44.524;11.284;2023-03-23T02:11:32;13.40;54.30
5192;DHT22;2615;44.524;11.284;2023-03-23T02:14:00;13.40;54.30
5192;DHT22;2615;44.524;11.284;2023-03-23T02:16:34;13.40;54.30
5192;DHT22;2615;44.524;11.284;2023-03-23T02:19:26;13.50;54.40
5192;DHT22;2615;44.524;11.284;2023-03-23T02:22:13;13.40;54.30
5192;DHT22;2615;44.524;11.284;2023-03-23T02:24:55;13.40;54.30
5192;DHT22;2615;44.524;11.284;2023-03-23T02:27:46;13.40;54.30
5192;DHT22;2615;44.524;11.284;2023-03-23T02:30:31;13.40;54.40
5192;DHT22;2615;44.524;11.284;2023-03-23T02:36:09;13.40;54.40
5192;DHT22;2615;44.524;11.284;2023-03-23T02:38:40;13.30;54.30
5192;DHT22;2615;44.524;11.284;2023-03-23T02:41:10;13.30;54.30
5192;DHT22;2615;44.524;11.284;2023-03-23T02:43:41;13.40;54.50
5192;DHT22;2615;44.524;11.284;2023-03-23T02:46:09;13.40;54.40
5192;DHT22;2615;44.524;11.284;2023-03-23T02:48:39;13.40;54.40
5192;DHT22;2615;44.524;11.284;2023-03-23T02:51:10;13.40;54.40
5192;DHT22;2615;44.524;11.284;2023-03-23T02:53:41;13.40;54.40
5192;DHT22;2615;44.524;11.284;2023-03-23T02:56:10;13.40;54.40
5192;DHT22;2615;44.524;11.284;2023-03-23T02:58:39;13.40;54.40
5192;DHT22;2615;44.524;11.284;2023-03-23T03:04:13;13.40;54.50
5192;DHT22;2615;44.524;11.284;2023-03-23T03:06:46;13.30;54.30
5192;DHT22;2615;44.524;11.284;2023-03-23T03:09:20;13.40;54.40
5192;DHT22;2615;44.524;11.284;2023-03-23T03:11:51;13.30;54.40
5192;DHT22;2615;44.524;11.284;2023-03-23T03:14:22;13.30;54.40
5192;DHT22;2615;44.524;11.284;2023-03-23T03:16:56;13.30;54.40
5192;DHT22;2615;44.524;11.284;2023-03-23T03:19:28;13.30;54.40
5192;DHT22;2615;44.524;11.284;2023-03-23T03:21:57;13.30;54.50
5192;DHT22;2615;44.524;11.284;2023-03-23T03:24:27;13.30;54.40
5192;DHT22;2615;44.524;11.284;2023-03-23T03:26:57;13.30;54.50
5192;DHT22;2615;44.524;11.284;2023-03-23T03:29:29;13.30;54.50
5192;DHT22;2615;44.524;11.284;2023-03-23T03:31:58;13.20;54.50
5192;DHT22;2615;44.524;11.284;2023-03-23T03:34:27;13.20;54.50
5192;DHT22;2615;44.524;11.284;2023-03-23T03:36:59;13.20;54.60
5192;DHT22;2615;44.524;11.284;2023-03-23T03:39:26;13.20;54.70
5192;DHT22;2615;44.524;11.284;2023-03-23T03:41:55;13.20;54.70
5192;DHT22;2615;44.524;11.284;2023-03-23T03:44:22;13.20;54.70
5192;DHT22;2615;44.524;11.284;2023-03-23T03:46:49;13.20;55.30
5192;DHT22;2615;44.524;11.284;2023-03-23T03:49:16;13.10;54.70
5192;DHT22;2615;44.524;11.284;2023-03-23T03:51:44;13.10;54.70
5192;DHT22;2615;44.524;11.284;2023-03-23T03:54:11;13.10;54.80
5192;DHT22;2615;44.524;11.284;2023-03-23T03:56:38;13.10;54.80
5192;DHT22;2615;44.524;11.284;2023-03-23T03:59:07;13.10;54.80
5192;DHT22;2615;44.524;11.284;2023-03-23T04:01:36;13.10;54.80
5192;DHT22;2615;44.524;11.284;2023-03-23T04:04:03;13.10;54.80
5192;DHT22;2615;44.524;11.284;2023-03-23T04:06:32;13.10;54.90
5192;DHT22;2615;44.524;11.284;2023-03-23T04:09:04;13.00;54.80
5192;DHT22;2615;44.524;11.284;2023-03-23T04:11:33;13.00;54.90
5192;DHT22;2615;44.524;11.284;2023-03-23T04:14:00;13.00;54.90
5192;DHT22;2615;44.524;11.284;2023-03-23T04:16:28;13.00;54.90
5192;DHT22;2615;44.524;11.284;2023-03-23T04:18:56;12.90;54.90
5192;DHT22;2615;44.524;11.284;2023-03-23T04:21:23;12.90;55.00
5192;DHT22;2615;44.524;11.284;2023-03-23T04:23:54;12.80;54.90
5192;DHT22;2615;44.524;11.284;2023-03-23T04:26:26;12.80;55.00
5192;DHT22;2615;44.524;11.284;2023-03-23T04:28:54;12.70;55.10
5192;DHT22;2615;44.524;11.284;2023-03-23T04:31:21;12.60;55.10
5192;DHT22;2615;44.524;11.284;2023-03-23T04:33:50;12.60;55.30
5192;DHT22;2615;44.524;11.284;2023-03-23T04:36:19;12.50;55.40
5192;DHT22;2615;44.524;11.284;2023-03-23T04:38:48;12.40;55.40
5192;DHT22;2615;44.524;11.284;2023-03-23T04:41:20;12.30;55.20
5192;DHT22;2615;44.524;11.284;2023-03-23T04:43:48;12.30;55.80
5192;DHT22;2615;44.524;11.284;2023-03-23T04:46:18;12.20;55.80
5192;DHT22;2615;44.524;11.284;2023-03-23T04:48:47;12.20;55.90
5192;DHT22;2615;44.524;11.284;2023-03-23T04:51:14;12.20;56.00
5192;DHT22;2615;44.524;11.284;2023-03-23T04:53:41;12.10;56.10
5192;DHT22;2615;44.524;11.284;2023-03-23T04:56:08;12.10;56.10
5192;DHT22;2615;44.524;11.284;2023-03-23T04:58:35;12.10;56.30
5192;DHT22;2615;44.524;11.284;2023-03-23T05:01:03;12.10;56.40
5192;DHT22;2615;44.524;11.284;2023-03-23T05:03:30;12.10;56.50
5192;DHT22;2615;44.524;11.284;2023-03-23T05:06:00;12.10;56.50
5192;DHT22;2615;44.524;11.284;2023-03-23T05:08:27;12.00;56.40
5192;DHT22;2615;44.524;11.284;2023-03-23T05:10:56;12.00;56.50
5192;DHT22;2615;44.524;11.284;2023-03-23T05:13:24;12.00;56.60
5192;DHT22;2615;44.524;11.284;2023-03-23T05:15:51;12.00;56.60
5192;DHT22;2615;44.524;11.284;2023-03-23T05:18:19;12.00;56.70
5192;DHT22;2615;44.524;11.284;2023-03-23T05:20:47;12.00;56.80
5192;DHT22;2615;44.524;11.284;2023-03-23T05:23:15;12.00;56.80
5192;DHT22;2615;44.524;11.284;2023-03-23T05:25:42;12.00;56.80
5192;DHT22;2615;44.524;11.284;2023-03-23T05:28:10;12.00;56.90
5192;DHT22;2615;44.524;11.284;2023-03-23T05:30:38;11.90;56.80
5192;DHT22;2615;44.524;11.284;2023-03-23T05:33:06;11.90;56.90
5192;DHT22;2615;44.524;11.284;2023-03-23T05:35:34;11.90;56.90
5192;DHT22;2615;44.524;11.284;2023-03-23T05:38:02;11.90;57.00
5192;DHT22;2615;44.524;11.284;2023-03-23T05:40:29;11.90;57.00
5192;DHT22;2615;44.524;11.284;2023-03-23T05:42:56;11.90;57.00
5192;DHT22;2615;44.524;11.284;2023-03-23T05:45:24;11.90;57.10
5192;DHT22;2615;44.524;11.284;2023-03-23T05:47:52;11.90;57.10
5192;DHT22;2615;44.524;11.284;2023-03-23T05:50:19;12.00;57.30
5192;DHT22;2615;44.524;11.284;2023-03-23T05:52:48;12.00;57.30
5192;DHT22;2615;44.524;11.284;2023-03-23T05:55:16;12.10;57.40
5192;DHT22;2615;44.524;11.284;2023-03-23T05:57:43;12.10;57.40
5192;DHT22;2615;44.524;11.284;2023-03-23T06:00:11;12.10;57.40
5192;DHT22;2615;44.524;11.284;2023-03-23T06:02:46;12.20;57.40
5192;DHT22;2615;44.524;11.284;2023-03-23T06:05:14;12.20;57.40
5192;DHT22;2615;44.524;11.284;2023-03-23T06:07:41;12.30;57.50
5192;DHT22;2615;44.524;11.284;2023-03-23T06:10:10;12.30;57.40
5192;DHT22;2615;44.524;11.284;2023-03-23T06:12:37;12.40;57.50
5192;DHT22;2615;44.524;11.284;2023-03-23T06:15:06;12.40;57.40
5192;DHT22;2615;44.524;11.284;2023-03-23T06:17:34;12.50;57.40
5192;DHT22;2615;44.524;11.284;2023-03-23T06:20:03;12.60;57.50
5192;DHT22;2615;44.524;11.284;2023-03-23T06:22:34;12.60;57.40
5192;DHT22;2615;44.524;11.284;2023-03-23T06:25:01;12.70;57.40
5192;DHT22;2615;44.524;11.284;2023-03-23T06:27:29;12.70;57.40
5192;DHT22;2615;44.524;11.284;2023-03-23T06:29:57;12.80;57.40
5192;DHT22;2615;44.524;11.284;2023-03-23T06:32:25;12.80;57.30
5192;DHT22;2615;44.524;11.284;2023-03-23T06:34:52;12.90;57.40
5192;DHT22;2615;44.524;11.284;2023-03-23T06:37:20;12.90;57.30
5192;DHT22;2615;44.524;11.284;2023-03-23T06:39:47;13.00;57.30
5192;DHT22;2615;44.524;11.284;2023-03-23T06:42:14;13.00;57.30
5192;DHT22;2615;44.524;11.284;2023-03-23T06:44:42;13.10;57.30
5192;DHT22;2615;44.524;11.284;2023-03-23T06:47:09;13.20;57.40
5192;DHT22;2615;44.524;11.284;2023-03-23T06:49:36;13.20;57.30
5192;DHT22;2615;44.524;11.284;2023-03-23T06:52:04;13.30;57.30
5192;DHT22;2615;44.524;11.284;2023-03-23T06:54:31;13.40;57.20
5192;DHT22;2615;44.524;11.284;2023-03-23T06:56:58;13.50;57.20
5192;DHT22;2615;44.524;11.284;2023-03-23T06:59:25;13.60;57.10
5192;DHT22;2615;44.524;11.284;2023-03-23T07:01:54;13.80;57.10
5192;DHT22;2615;44.524;11.284;2023-03-23T07:04:21;13.90;56.90
5192;DHT22;2615;44.524;11.284;2023-03-23T07:06:49;14.10;56.20
5192;DHT22;2615;44.524;11.284;2023-03-23T07:09:16;14.10;56.60
5192;DHT22;2615;44.524;11.284;2023-03-23T07:11:43;14.30;56.60
5192;DHT22;2615;44.524;11.284;2023-03-23T07:14:13;14.40;56.40
5192;DHT22;2615;44.524;11.284;2023-03-23T07:16:40;14.60;56.40
5192;DHT22;2615;44.524;11.284;2023-03-23T07:19:09;14.70;56.20
5192;DHT22;2615;44.524;11.284;2023-03-23T07:21:36;14.80;56.10
5192;DHT22;2615;44.524;11.284;2023-03-23T07:24:04;14.90;56.00
5192;DHT22;2615;44.524;11.284;2023-03-23T07:26:31;15.00;55.80
5192;DHT22;2615;44.524;11.284;2023-03-23T07:28:58;15.10;55.70
5192;DHT22;2615;44.524;11.284;2023-03-23T07:31:26;15.20;55.60
5192;DHT22;2615;44.524;11.284;2023-03-23T07:33:53;15.30;55.50
5192;DHT22;2615;44.524;11.284;2023-03-23T07:36:21;15.50;55.50
5192;DHT22;2615;44.524;11.284;2023-03-23T07:38:48;15.60;55.10
5192;DHT22;2615;44.524;11.284;2023-03-23T07:41:15;15.70;55.00
5192;DHT22;2615;44.524;11.284;2023-03-23T07:43:43;15.90;55.00
5192;DHT22;2615;44.524;11.284;2023-03-23T07:46:10;15.90;54.70
5192;DHT22;2615;44.524;11.284;2023-03-23T07:48:37;16.00;54.60
5192;DHT22;2615;44.524;11.284;2023-03-23T07:51:05;16.10;54.40
5192;DHT22;2615;44.524;11.284;2023-03-23T07:53:34;16.20;54.30
5192;DHT22;2615;44.524;11.284;2023-03-23T07:56:01;16.30;54.10
5192;DHT22;2615;44.524;11.284;2023-03-23T07:58:29;16.30;53.80
5192;DHT22;2615;44.524;11.284;2023-03-23T08:00:56;16.40;53.80
5192;DHT22;2615;44.524;11.284;2023-03-23T08:03:23;16.50;53.70
5192;DHT22;2615;44.524;11.284;2023-03-23T08:05:50;16.60;53.60
5192;DHT22;2615;44.524;11.284;2023-03-23T08:08:17;16.70;53.50
5192;DHT22;2615;44.524;11.284;2023-03-23T08:10:46;16.90;53.50
5192;DHT22;2615;44.524;11.284;2023-03-23T08:13:13;17.10;53.40
5192;DHT22;2615;44.524;11.284;2023-03-23T08:15:40;17.20;53.00
5192;DHT22;2615;44.524;11.284;2023-03-23T08:18:07;17.30;52.70
5192;DHT22;2615;44.524;11.284;2023-03-23T08:20:35;17.40;52.40
5192;DHT22;2615;44.524;11.284;2023-03-23T08:23:02;17.50;52.10
5192;DHT22;2615;44.524;11.284;2023-03-23T08:25:29;17.50;51.80
5192;DHT22;2615;44.524;11.284;2023-03-23T08:27:59;17.60;51.80
5192;DHT22;2615;44.524;11.284;2023-03-23T08:30:29;17.70;51.80
5192;DHT22;2615;44.524;11.284;2023-03-23T08:32:59;17.80;51.60
5192;DHT22;2615;44.524;11.284;2023-03-23T08:35:26;17.90;51.30
5192;DHT22;2615;44.524;11.284;2023-03-23T08:37:54;18.00;51.10
5192;DHT22;2615;44.524;11.284;2023-03-23T08:40:22;18.10;51.00
5192;DHT22;2615;44.524;11.284;2023-03-23T08:42:50;18.20;50.90
5192;DHT22;2615;44.524;11.284;2023-03-23T08:45:22;18.30;50.70
5192;DHT22;2615;44.524;11.284;2023-03-23T08:47:50;18.40;50.50
5192;DHT22;2615;44.524;11.284;2023-03-23T08:50:23;18.60;50.50
5192;DHT22;2615;44.524;11.284;2023-03-23T08:52:50;18.70;50.10
5192;DHT22;2615;44.524;11.284;2023-03-23T08:55:18;18.80;49.90
5192;DHT22;2615;44.524;11.284;2023-03-23T08:57:46;18.90;49.60
5192;DHT22;2615;44.524;11.284;2023-03-23T09:00:16;19.00;49.30
5192;DHT22;2615;44.524;11.284;2023-03-23T09:02:47;19.00;49.00
5192;DHT22;2615;44.524;11.284;2023-03-23T09:05:15;19.10;48.90
5192;DHT22;2615;44.524;11.284;2023-03-23T09:07:44;19.20;48.90
5192;DHT22;2615;44.524;11.284;2023-03-23T09:10:12;19.30;48.70
5192;DHT22;2615;44.524;11.284;2023-03-23T09:12:40;19.40;48.60
5192;DHT22;2615;44.524;11.284;2023-03-23T09:15:09;19.40;48.40
5192;DHT22;2615;44.524;11.284;2023-03-23T09:17:39;19.50;48.20
5192;DHT22;2615;44.524;11.284;2023-03-23T09:20:09;19.60;48.00
5192;DHT22;2615;44.524;11.284;2023-03-23T09:22:38;19.70;47.70
5192;DHT22;2615;44.524;11.284;2023-03-23T09:25:06;19.80;47.60
5192;DHT22;2615;44.524;11.284;2023-03-23T09:27:34;19.90;47.50
5192;DHT22;2615;44.524;11.284;2023-03-23T09:30:03;20.00;47.40
5192;DHT22;2615;44.524;11.284;2023-03-23T09:32:32;20.10;47.20
5192;DHT22;2615;44.524;11.284;2023-03-23T09:35:00;20.10;46.80
5192;DHT22;2615;44.524;11.284;2023-03-23T09:37:29;20.20;46.60
5192;DHT22;2615;44.524;11.284;2023-03-23T09:39:56;20.30;46.40
5192;DHT22;2615;44.524;11.284;2023-03-23T09:42:34;20.40;46.40
5192;DHT22;2615;44.524;11.284;2023-03-23T09:45:12;20.40;46.20
5192;DHT22;2615;44.524;11.284;2023-03-23T09:47:50;20.60;46.10
5192;DHT22;2615;44.524;11.284;2023-03-23T09:50:25;20.80;45.40
5192;DHT22;2615;44.524;11.284;2023-03-23T09:53:01;20.80;45.70
5192;DHT22;2615;44.524;11.284;2023-03-23T09:55:29;21.00;45.50
5192;DHT22;2615;44.524;11.284;2023-03-23T09:57:59;21.20;45.30
5192;DHT22;2615;44.524;11.284;2023-03-23T10:00:31;21.40;45.20
5192;DHT22;2615;44.524;11.284;2023-03-23T10:03:05;21.70;45.10
5192;DHT22;2615;44.524;11.284;2023-03-23T10:05:34;21.80;44.80
5192;DHT22;2615;44.524;11.284;2023-03-23T10:08:11;22.10;44.70
5192;DHT22;2615;44.524;11.284;2023-03-23T10:10:47;22.20;44.20
5192;DHT22;2615;44.524;11.284;2023-03-23T10:13:25;22.30;43.90
5192;DHT22;2615;44.524;11.284;2023-03-23T10:15:54;22.40;43.50
5192;DHT22;2615;44.524;11.284;2023-03-23T10:18:27;22.40;43.30
5192;DHT22;2615;44.524;11.284;2023-03-23T10:20:58;22.40;43.10
5192;DHT22;2615;44.524;11.284;2023-03-23T10:23:53;22.40;43.00
5192;DHT22;2615;44.524;11.284;2023-03-23T10:26:33;22.50;42.70
5192;DHT22;2615;44.524;11.284;2023-03-23T10:29:12;22.50;42.70
5192;DHT22;2615;44.524;11.284;2023-03-23T10:31:43;22.60;42.70
5192;DHT22;2615;44.524;11.284;2023-03-23T10:34:17;22.80;42.70
5192;DHT22;2615;44.524;11.284;2023-03-23T10:36:55;23.10;42.40
5192;DHT22;2615;44.524;11.284;2023-03-23T10:39:29;23.40;41.90
5192;DHT22;2615;44.524;11.284;2023-03-23T10:42:00;23.80;41.80
5192;DHT22;2615;44.524;11.284;2023-03-23T10:44:33;24.10;41.30
5192;DHT22;2615;44.524;11.284;2023-03-23T10:47:03;24.40;40.90
5192;DHT22;2615;44.524;11.284;2023-03-23T10:49:37;24.50;40.50
5192;DHT22;2615;44.524;11.284;2023-03-23T10:52:13;24.50;40.50
5192;DHT22;2615;44.524;11.284;2023-03-23T10:54:57;24.80;40.80
5192;DHT22;2615;44.524;11.284;2023-03-23T10:57:26;25.20;40.40
5192;DHT22;2615;44.524;11.284;2023-03-23T10:59:59;25.50;40.10
5192;DHT22;2615;44.524;11.284;2023-03-23T11:02:27;25.90;39.60
5192;DHT22;2615;44.524;11.284;2023-03-23T11:04:59;26.40;39.50
5192;DHT22;2615;44.524;11.284;2023-03-23T11:07:28;27.10;39.10
5192;DHT22;2615;44.524;11.284;2023-03-23T11:10:07;27.70;38.70
5192;DHT22;2615;44.524;11.284;2023-03-23T11:12:35;28.00;37.60
5192;DHT22;2615;44.524;11.284;2023-03-23T11:15:21;27.90;37.30
5192;DHT22;2615;44.524;11.284;2023-03-23T11:17:55;27.50;36.60
5192;DHT22;2615;44.524;11.284;2023-03-23T11:20:24;27.00;36.70
5192;DHT22;2615;44.524;11.284;2023-03-23T11:22:52;26.70;37.00
5192;DHT22;2615;44.524;11.284;2023-03-23T11:25:21;26.40;36.90
5192;DHT22;2615;44.524;11.284;2023-03-23T11:27:49;26.20;37.00
5192;DHT22;2615;44.524;11.284;2023-03-23T11:30:23;26.10;37.00
5192;DHT22;2615;44.524;11.284;2023-03-23T11:32:51;26.20;37.00
5192;DHT22;2615;44.524;11.284;2023-03-23T11:35:21;26.30;37.00
5192;DHT22;2615;44.524;11.284;2023-03-23T11:37:51;26.50;37.00
5192;DHT22;2615;44.524;11.284;2023-03-23T11:40:23;26.70;36.80
5192;DHT22;2615;44.524;11.284;2023-03-23T11:42:58;26.80;36.40
5192;DHT22;2615;44.524;11.284;2023-03-23T11:45:33;26.70;36.20
5192;DHT22;2615;44.524;11.284;2023-03-23T11:48:10;26.40;36.20
5192;DHT22;2615;44.524;11.284;2023-03-23T11:50:48;26.30;36.20
5192;DHT22;2615;44.524;11.284;2023-03-23T11:53:25;26.30;36.20
5192;DHT22;2615;44.524;11.284;2023-03-23T11:56:12;26.40;35.90
5192;DHT22;2615;44.524;11.284;2023-03-23T11:58:40;26.20;35.80
5192;DHT22;2615;44.524;11.284;2023-03-23T12:01:16;26.10;36.10
5192;DHT22;2615;44.524;11.284;2023-03-23T12:06:46;25.60;36.40
5192;DHT22;2615;44.524;11.284;2023-03-23T12:09:24;25.30;36.60
5192;DHT22;2615;44.524;11.284;2023-03-23T12:12:05;25.10;36.50
5192;DHT22;2615;44.524;11.284;2023-03-23T12:14:40;24.90;36.50
5192;DHT22;2615;44.524;11.284;2023-03-23T12:17:18;24.70;36.50
5192;DHT22;2615;44.524;11.284;2023-03-23T12:19:56;24.60;37.30
5192;DHT22;2615;44.524;11.284;2023-03-23T12:22:39;24.60;37.60
5192;DHT22;2615;44.524;11.284;2023-03-23T12:25:20;24.80;37.10
5192;DHT22;2615;44.524;11.284;2023-03-23T12:27:55;24.90;37.30
5192;DHT22;2615;44.524;11.284;2023-03-23T12:30:33;25.20;37.50
5192;DHT22;2615;44.524;11.284;2023-03-23T12:33:18;25.60;37.50
5192;DHT22;2615;44.524;11.284;2023-03-23T12:36:01;26.20;37.60
5192;DHT22;2615;44.524;11.284;2023-03-23T12:38:51;26.80;37.20
5192;DHT22;2615;44.524;11.284;2023-03-23T12:41:26;27.40;36.50
5192;DHT22;2615;44.524;11.284;2023-03-23T12:43:59;27.80;36.10
5192;DHT22;2615;44.524;11.284;2023-03-23T12:46:39;28.00;35.50
5192;DHT22;2615;44.524;11.284;2023-03-23T12:49:12;28.20;35.10
5192;DHT22;2615;44.524;11.284;2023-03-23T12:51:47;28.40;34.80
5192;DHT22;2615;44.524;11.284;2023-03-23T12:54:21;28.30;34.50
5192;DHT22;2615;44.524;11.284;2023-03-23T12:56:54;28.10;34.70
5192;DHT22;2615;44.524;11.284;2023-03-23T12:59:33;27.90;34.70
5192;DHT22;2615;44.524;11.284;2023-03-23T13:02:05;27.60;34.70
5192;DHT22;2615;44.524;11.284;2023-03-23T13:04:37;27.40;34.90
5192;DHT22;2615;44.524;11.284;2023-03-23T13:07:06;27.20;35.10
5192;DHT22;2615;44.524;11.284;2023-03-23T13:09:48;27.10;35.40
5192;DHT22;2615;44.524;11.284;2023-03-23T13:12:17;26.90;35.30
5192;DHT22;2615;44.524;11.284;2023-03-23T13:14:56;26.70;36.20
5192;DHT22;2615;44.524;11.284;2023-03-23T13:17:33;26.40;35.60
5192;DHT22;2615;44.524;11.284;2023-03-23T13:23:01;25.80;35.90
5192;DHT22;2615;44.524;11.284;2023-03-23T13:25:49;25.80;36.40
5192;DHT22;2615;44.524;11.284;2023-03-23T13:28:18;25.70;36.40
5192;DHT22;2615;44.524;11.284;2023-03-23T13:31:00;25.60;36.40
5192;DHT22;2615;44.524;11.284;2023-03-23T13:33:32;25.50;36.30
5192;DHT22;2615;44.524;11.284;2023-03-23T13:36:08;25.40;36.50
5192;DHT22;2615;44.524;11.284;2023-03-23T13:38:36;25.40;37.00
5192;DHT22;2615;44.524;11.284;2023-03-23T13:41:11;25.50;37.20
5192;DHT22;2615;44.524;11.284;2023-03-23T13:43:40;25.50;37.30
5192;DHT22;2615;44.524;11.284;2023-03-23T13:46:22;25.40;37.40
5192;DHT22;2615;44.524;11.284;2023-03-23T13:49:02;25.40;37.40
5192;DHT22;2615;44.524;11.284;2023-03-23T13:51:51;25.40;37.40
5192;DHT22;2615;44.524;11.284;2023-03-23T13:54:29;25.30;37.30
5192;DHT22;2615;44.524;11.284;2023-03-23T13:56:58;25.20;37.30
5192;DHT22;2615;44.524;11.284;2023-03-23T13:59:33;25.10;37.40
5192;DHT22;2615;44.524;11.284;2023-03-23T14:02:31;25.20;38.20
5192;DHT22;2615;44.524;11.284;2023-03-23T14:05:10;25.40;37.50
5192;DHT22;2615;44.524;11.284;2023-03-23T14:07:53;25.70;37.50
5192;DHT22;2615;44.524;11.284;2023-03-23T14:10:21;26.10;37.30
5192;DHT22;2615;44.524;11.284;2023-03-23T14:12:52;26.30;37.00
5192;DHT22;2615;44.524;11.284;2023-03-23T14:15:20;26.60;36.70
5192;DHT22;2615;44.524;11.284;2023-03-23T14:17:49;26.80;36.50
5192;DHT22;2615;44.524;11.284;2023-03-23T14:20:23;27.00;36.00
5192;DHT22;2615;44.524;11.284;2023-03-23T14:22:54;26.90;35.60
5192;DHT22;2615;44.524;11.284;2023-03-23T14:25:22;26.80;35.60
5192;DHT22;2615;44.524;11.284;2023-03-23T14:27:53;26.60;36.00
5192;DHT22;2615;44.524;11.284;2023-03-23T14:30:21;26.50;35.90
5192;DHT22;2615;44.524;11.284;2023-03-23T14:32:52;26.30;36.00
5192;DHT22;2615;44.524;11.284;2023-03-23T14:35:25;26.10;35.90
5192;DHT22;2615;44.524;11.284;2023-03-23T14:37:52;25.80;35.90
5192;DHT22;2615;44.524;11.284;2023-03-23T14:40:20;25.60;36.30
5192;DHT22;2615;44.524;11.284;2023-03-23T14:42:49;25.30;36.40
5192;DHT22;2615;44.524;11.284;2023-03-23T14:45:18;25.20;36.70
5192;DHT22;2615;44.524;11.284;2023-03-23T14:47:48;25.10;36.90
5192;DHT22;2615;44.524;11.284;2023-03-23T14:50:26;25.00;37.00
5192;DHT22;2615;44.524;11.284;2023-03-23T14:52:57;24.90;37.30
5192;DHT22;2615;44.524;11.284;2023-03-23T14:55:26;25.00;37.60
5192;DHT22;2615;44.524;11.284;2023-03-23T14:57:54;25.00;37.70
5192;DHT22;2615;44.524;11.284;2023-03-23T15:00:25;25.00;37.50
5192;DHT22;2615;44.524;11.284;2023-03-23T15:02:56;25.00;37.30
5192;DHT22;2615;44.524;11.284;2023-03-23T15:05:28;24.90;37.30
5192;DHT22;2615;44.524;11.284;2023-03-23T15:08:02;24.80;37.40
5192;DHT22;2615;44.524;11.284;2023-03-23T15:10:29;24.70;37.70
5192;DHT22;2615;44.524;11.284;2023-03-23T15:12:57;24.70;38.00
5192;DHT22;2615;44.524;11.284;2023-03-23T15:15:26;24.80;38.20
5192;DHT22;2615;44.524;11.284;2023-03-23T15:17:54;24.80;38.20
5192;DHT22;2615;44.524;11.284;2023-03-23T15:20:24;24.90;38.20
5192;DHT22;2615;44.524;11.284;2023-03-23T15:22:53;25.10;38.20
5192;DHT22;2615;44.524;11.284;2023-03-23T15:25:22;25.20;38.10
5192;DHT22;2615;44.524;11.284;2023-03-23T15:27:51;25.40;38.10
5192;DHT22;2615;44.524;11.284;2023-03-23T15:30:31;25.40;38.20
5192;DHT22;2615;44.524;11.284;2023-03-23T15:33:04;25.50;38.20
5192;DHT22;2615;44.524;11.284;2023-03-23T15:35:34;25.40;38.10
5192;DHT22;2615;44.524;11.284;2023-03-23T15:38:05;25.20;37.90
5192;DHT22;2615;44.524;11.284;2023-03-23T15:40:34;25.00;38.00
5192;DHT22;2615;44.524;11.284;2023-03-23T15:43:07;24.70;38.10
5192;DHT22;2615;44.524;11.284;2023-03-23T15:45:35;24.50;38.40
5192;DHT22;2615;44.524;11.284;2023-03-23T15:48:11;24.30;38.60
5192;DHT22;2615;44.524;11.284;2023-03-23T15:50:40;24.10;38.90
5192;DHT22;2615;44.524;11.284;2023-03-23T15:53:19;24.00;39.20
5192;DHT22;2615;44.524;11.284;2023-03-23T15:55:47;23.80;39.30
5192;DHT22;2615;44.524;11.284;2023-03-23T15:58:14;23.80;39.40
5192;DHT22;2615;44.524;11.284;2023-03-23T16:00:43;23.70;39.50
5192;DHT22;2615;44.524;11.284;2023-03-23T16:03:16;23.60;39.60
5192;DHT22;2615;44.524;11.284;2023-03-23T16:05:46;23.60;39.80
5192;DHT22;2615;44.524;11.284;2023-03-23T16:08:15;23.50;39.90
5192;DHT22;2615;44.524;11.284;2023-03-23T16:10:43;23.40;39.80
5192;DHT22;2615;44.524;11.284;2023-03-23T16:13:12;23.30;39.90
5192;DHT22;2615;44.524;11.284;2023-03-23T16:15:40;23.10;40.00
5192;DHT22;2615;44.524;11.284;2023-03-23T16:18:16;23.00;40.20
5192;DHT22;2615;44.524;11.284;2023-03-23T16:20:44;22.80;40.30